sensor_id;sensor_type;location;lat;lon;timestamp;P1;durP1;ratioP1;P2;durP2;ratioP2
2546;SDS011;1283;47.982;7.834;2024-02-14T00:01:05;2.72;;;1.40;;
2546;SDS011;1283;47.982;7.834;2024-02-14T00:03:36;4.72;;;2.00;;
2546;SDS011;1283;47.982;7.834;2024-02-14T00:06:04;4.38;;;1.77;;
2546;SDS011;1283;47.982;7.834;2024-02-14T00:08:32;5.65;;;2.67;;
2546;SDS011;1283;47.982;7.834;2024-02-14T00:11:00;5.10;;;1.60;;
2546;SDS011;1283;47.982;7.834;2024-02-14T00:13:27;3.63;;;1.40;;
2546;SDS011;1283;47.982;7.834;2024-02-14T00:15:55;5.82;;;1.50;;
2546;SDS011;1283;47.982;7.834;2024-02-14T00:18:22;2.25;;;1.10;;
2546;SDS011;1283;47.982;7.834;2024-02-14T00:20:52;4.68;;;1.52;;
2546;SDS011;1283;47.982;7.834;2024-02-14T00:23:19;2.42;;;1.50;;
2546;SDS011;1283;47.982;7.834;2024-02-14T00:25:46;4.40;;;1.70;;
2546;SDS011;1283;47.982;7.834;2024-02-14T00:28:26;8.05;;;1.90;;
2546;SDS011;1283;47.982;7.834;2024-02-14T00:30:56;10.48;;;2.28;;
2546;SDS011;1283;47.982;7.834;2024-02-14T00:33:28;5.63;;;2.10;;
2546;SDS011;1283;47.982;7.834;2024-02-14T00:35:55;4.20;;;1.92;;
2546;SDS011;1283;47.982;7.834;2024-02-14T00:38:24;4.40;;;1.77;;
2546;SDS011;1283;47.982;7.834;2024-02-14T00:40:51;4.00;;;1.65;;
2546;SDS011;1283;47.982;7.834;2024-02-14T00:43:19;6.30;;;1.85;;
2546;SDS011;1283;47.982;7.834;2024-02-14T00:45:45;5.38;;;2.00;;
2546;SDS011;1283;47.982;7.834;2024-02-14T00:48:12;3.72;;;2.20;;
2546;SDS011;1283;47.982;7.834;2024-02-14T00:50:46;4.97;;;2.33;;
2546;SDS011;1283;47.982;7.834;2024-02-14T00:53:12;6.03;;;2.40;;
2546;SDS011;1283;47.982;7.834;2024-02-14T00:55:44;5.22;;;1.70;;
2546;SDS011;1283;47.982;7.834;2024-02-14T00:58:10;3.33;;;1.48;;
2546;SDS011;1283;47.982;7.834;2024-02-14T01:00:38;5.45;;;1.55;;
2546;SDS011;1283;47.982;7.834;2024-02-14T01:03:06;3.47;;;1.00;;
2546;SDS011;1283;47.982;7.834;2024-02-14T01:05:32;2.60;;;0.98;;
2546;SDS011;1283;47.982;7.834;2024-02-14T01:08:00;6.05;;;1.23;;
2546;SDS011;1283;47.982;7.834;2024-02-14T01:10:28;5.00;;;1.25;;
2546;SDS011;1283;47.982;7.834;2024-02-14T01:12:55;4.03;;;1.23;;
2546;SDS011;1283;47.982;7.834;2024-02-14T01:15:22;3.45;;;1.13;;
2546;SDS011;1283;47.982;7.834;2024-02-14T01:17:50;6.03;;;1.00;;
2546;SDS011;1283;47.982;7.834;2024-02-14T01:20:16;6.13;;;1.33;;
2546;SDS011;1283;47.982;7.834;2024-02-14T01:22:43;1.30;;;0.80;;
2546;SDS011;1283;47.982;7.834;2024-02-14T01:25:13;4.28;;;1.35;;
2546;SDS011;1283;47.982;7.834;2024-02-14T01:27:40;4.15;;;1.27;;
2546;SDS011;1283;47.982;7.834;2024-02-14T01:30:08;4.75;;;1.20;;
2546;SDS011;1283;47.982;7.834;2024-02-14T01:32:38;5.63;;;1.38;;
2546;SDS011;1283;47.982;7.834;2024-02-14T01:35:16;1.92;;;1.17;;
2546;SDS011;1283;47.982;7.834;2024-02-14T01:37:43;5.43;;;1.30;;
2546;SDS011;1283;47.982;7.834;2024-02-14T01:40:10;6.40;;;1.30;;
2546;SDS011;1283;47.982;7.834;2024-02-14T01:42:38;3.15;;;1.02;;
2546;SDS011;1283;47.982;7.834;2024-02-14T01:45:07;2.95;;;1.33;;
2546;SDS011;1283;47.982;7.834;2024-02-14T01:47:34;2.63;;;1.10;;
2546;SDS011;1283;47.982;7.834;2024-02-14T01:50:01;8.07;;;1.02;;
2546;SDS011;1283;47.982;7.834;2024-02-14T01:52:30;2.75;;;1.02;;
2546;SDS011;1283;47.982;7.834;2024-02-14T01:54:58;3.10;;;1.13;;
2546;SDS011;1283;47.982;7.834;2024-02-14T01:57:27;4.97;;;1.10;;
2546;SDS011;1283;47.982;7.834;2024-02-14T01:59:57;3.83;;;1.20;;
2546;SDS011;1283;47.982;7.834;2024-02-14T02:02:24;5.90;;;1.27;;
2546;SDS011;1283;47.982;7.834;2024-02-14T02:04:51;3.17;;;1.23;;
2546;SDS011;1283;47.982;7.834;2024-02-14T02:07:18;7.57;;;1.30;;
2546;SDS011;1283;47.982;7.834;2024-02-14T02:09:46;6.03;;;0.90;;
2546;SDS011;1283;47.982;7.834;2024-02-14T02:12:14;5.90;;;0.90;;
2546;SDS011;1283;47.982;7.834;2024-02-14T02:14:43;2.60;;;1.20;;
2546;SDS011;1283;47.982;7.834;2024-02-14T02:17:12;4.10;;;1.05;;
2546;SDS011;1283;47.982;7.834;2024-02-14T02:19:39;3.45;;;1.00;;
2546;SDS011;1283;47.982;7.834;2024-02-14T02:22:07;5.03;;;1.30;;
2546;SDS011;1283;47.982;7.834;2024-02-14T02:24:36;6.80;;;1.45;;
2546;SDS011;1283;47.982;7.834;2024-02-14T02:27:02;8.57;;;1.10;;
2546;SDS011;1283;47.982;7.834;2024-02-14T02:29:30;3.20;;;1.25;;
2546;SDS011;1283;47.982;7.834;2024-02-14T02:31:57;4.70;;;1.10;;
2546;SDS011;1283;47.982;7.834;2024-02-14T02:34:24;3.85;;;1.08;;
2546;SDS011;1283;47.982;7.834;2024-02-14T02:36:51;5.15;;;1.13;;
2546;SDS011;1283;47.982;7.834;2024-02-14T02:39:17;2.97;;;1.10;;
2546;SDS011;1283;47.982;7.834;2024-02-14T02:41:48;2.85;;;1.38;;
2546;SDS011;1283;47.982;7.834;2024-02-14T02:44:15;7.60;;;1.60;;
2546;SDS011;1283;47.982;7.834;2024-02-14T02:46:42;3.58;;;1.10;;
2546;SDS011;1283;47.982;7.834;2024-02-14T02:49:10;4.28;;;1.33;;
2546;SDS011;1283;47.982;7.834;2024-02-14T02:51:38;5.15;;;0.95;;
2546;SDS011;1283;47.982;7.834;2024-02-14T02:54:05;2.25;;;1.30;;
2546;SDS011;1283;47.982;7.834;2024-02-14T02:56:32;1.63;;;1.08;;
2546;SDS011;1283;47.982;7.834;2024-02-14T02:59:00;3.85;;;1.05;;
2546;SDS011;1283;47.982;7.834;2024-02-14T03:01:28;3.95;;;1.30;;
2546;SDS011;1283;47.982;7.834;2024-02-14T03:03:56;5.97;;;1.08;;
2546;SDS011;1283;47.982;7.834;2024-02-14T03:06:24;14.00;;;1.67;;
2546;SDS011;1283;47.982;7.834;2024-02-14T03:08:53;3.25;;;1.20;;
2546;SDS011;1283;47.982;7.834;2024-02-14T03:11:22;4.85;;;1.08;;
2546;SDS011;1283;47.982;7.834;2024-02-14T03:13:51;1.92;;;0.90;;
2546;SDS011;1283;47.982;7.834;2024-02-14T03:16:20;6.15;;;1.23;;
2546;SDS011;1283;47.982;7.834;2024-02-14T03:18:49;4.97;;;1.35;;
2546;SDS011;1283;47.982;7.834;2024-02-14T03:21:15;3.05;;;1.10;;
2546;SDS011;1283;47.982;7.834;2024-02-14T03:23:42;4.03;;;1.23;;
2546;SDS011;1283;47.982;7.834;2024-02-14T03:26:11;5.00;;;1.05;;
2546;SDS011;1283;47.982;7.834;2024-02-14T03:28:38;4.00;;;1.08;;
2546;SDS011;1283;47.982;7.834;2024-02-14T03:31:05;3.35;;;1.00;;
2546;SDS011;1283;47.982;7.834;2024-02-14T03:33:33;4.20;;;1.20;;
2546;SDS011;1283;47.982;7.834;2024-02-14T03:35:59;3.83;;;1.13;;
2546;SDS011;1283;47.982;7.834;2024-02-14T03:38:26;1.17;;;0.77;;
2546;SDS011;1283;47.982;7.834;2024-02-14T03:40:52;1.65;;;0.82;;
2546;SDS011;1283;47.982;7.834;2024-02-14T03:43:19;2.53;;;1.23;;
2546;SDS011;1283;47.982;7.834;2024-02-14T03:45:47;1.48;;;1.02;;
2546;SDS011;1283;47.982;7.834;2024-02-14T03:48:13;2.67;;;0.90;;
2546;SDS011;1283;47.982;7.834;2024-02-14T03:50:41;4.95;;;0.98;;
2546;SDS011;1283;47.982;7.834;2024-02-14T03:53:08;4.53;;;0.77;;
2546;SDS011;1283;47.982;7.834;2024-02-14T03:55:37;2.38;;;0.80;;
2546;SDS011;1283;47.982;7.834;2024-02-14T03:58:04;4.00;;;1.02;;
2546;SDS011;1283;47.982;7.834;2024-02-14T04:00:33;1.42;;;0.85;;
2546;SDS011;1283;47.982;7.834;2024-02-14T04:03:00;3.35;;;1.10;;
2546;SDS011;1283;47.982;7.834;2024-02-14T04:05:27;4.35;;;1.33;;
2546;SDS011;1283;47.982;7.834;2024-02-14T04:08:00;1.85;;;0.90;;
2546;SDS011;1283;47.982;7.834;2024-02-14T04:10:26;5.20;;;1.00;;
2546;SDS011;1283;47.982;7.834;2024-02-14T04:12:53;2.97;;;1.10;;
2546;SDS011;1283;47.982;7.834;2024-02-14T04:15:19;1.92;;;0.98;;
2546;SDS011;1283;47.982;7.834;2024-02-14T04:17:45;1.55;;;1.10;;
2546;SDS011;1283;47.982;7.834;2024-02-14T04:20:13;1.13;;;0.88;;
2546;SDS011;1283;47.982;7.834;2024-02-14T04:22:40;3.85;;;1.55;;
2546;SDS011;1283;47.982;7.834;2024-02-14T04:25:09;3.80;;;1.05;;
2546;SDS011;1283;47.982;7.834;2024-02-14T04:27:36;2.90;;;1.02;;
2546;SDS011;1283;47.982;7.834;2024-02-14T04:30:03;2.17;;;1.00;;
2546;SDS011;1283;47.982;7.834;2024-02-14T04:32:31;3.30;;;0.82;;
2546;SDS011;1283;47.982;7.834;2024-02-14T04:34:58;4.28;;;1.20;;
2546;SDS011;1283;47.982;7.834;2024-02-14T04:37:25;2.38;;;0.90;;
2546;SDS011;1283;47.982;7.834;2024-02-14T04:39:51;3.72;;;0.90;;
2546;SDS011;1283;47.982;7.834;2024-02-14T04:42:19;3.03;;;1.13;;
2546;SDS011;1283;47.982;7.834;2024-02-14T04:44:46;3.67;;;1.15;;
2546;SDS011;1283;47.982;7.834;2024-02-14T04:47:18;2.38;;;0.85;;
2546;SDS011;1283;47.982;7.834;2024-02-14T04:49:45;3.97;;;1.05;;
2546;SDS011;1283;47.982;7.834;2024-02-14T04:52:12;2.42;;;0.80;;
2546;SDS011;1283;47.982;7.834;2024-02-14T04:54:38;3.38;;;1.10;;
2546;SDS011;1283;47.982;7.834;2024-02-14T04:57:06;1.35;;;0.80;;
2546;SDS011;1283;47.982;7.834;2024-02-14T04:59:37;3.70;;;1.10;;
2546;SDS011;1283;47.982;7.834;2024-02-14T05:02:04;6.85;;;1.30;;
2546;SDS011;1283;47.982;7.834;2024-02-14T05:04:32;2.25;;;1.02;;
2546;SDS011;1283;47.982;7.834;2024-02-14T05:07:00;1.92;;;0.80;;
2546;SDS011;1283;47.982;7.834;2024-02-14T05:09:26;2.50;;;1.10;;
2546;SDS011;1283;47.982;7.834;2024-02-14T05:11:53;2.90;;;1.20;;
2546;SDS011;1283;47.982;7.834;2024-02-14T05:14:22;3.47;;;1.20;;
2546;SDS011;1283;47.982;7.834;2024-02-14T05:16:52;3.42;;;1.20;;
2546;SDS011;1283;47.982;7.834;2024-02-14T05:19:19;1.48;;;0.90;;
2546;SDS011;1283;47.982;7.834;2024-02-14T05:21:46;2.25;;;0.90;;
2546;SDS011;1283;47.982;7.834;2024-02-14T05:24:13;3.05;;;0.93;;
2546;SDS011;1283;47.982;7.834;2024-02-14T05:26:40;1.67;;;1.00;;
2546;SDS011;1283;47.982;7.834;2024-02-14T05:29:08;3.75;;;1.15;;
2546;SDS011;1283;47.982;7.834;2024-02-14T05:31:42;6.10;;;0.82;;
2546;SDS011;1283;47.982;7.834;2024-02-14T05:34:10;3.22;;;1.10;;
2546;SDS011;1283;47.982;7.834;2024-02-14T05:36:37;1.95;;;0.85;;
2546;SDS011;1283;47.982;7.834;2024-02-14T05:39:09;1.88;;;1.02;;
2546;SDS011;1283;47.982;7.834;2024-02-14T05:41:37;7.03;;;1.20;;
2546;SDS011;1283;47.982;7.834;2024-02-14T05:44:06;1.52;;;0.82;;
2546;SDS011;1283;47.982;7.834;2024-02-14T05:46:33;4.35;;;1.00;;
2546;SDS011;1283;47.982;7.834;2024-02-14T05:49:01;3.25;;;1.10;;
2546;SDS011;1283;47.982;7.834;2024-02-14T05:51:30;2.13;;;1.08;;
2546;SDS011;1283;47.982;7.834;2024-02-14T05:53:57;5.78;;;1.33;;
2546;SDS011;1283;47.982;7.834;2024-02-14T05:56:27;2.13;;;0.90;;
2546;SDS011;1283;47.982;7.834;2024-02-14T05:58:53;4.93;;;0.90;;
2546;SDS011;1283;47.982;7.834;2024-02-14T06:01:19;1.75;;;0.95;;
2546;SDS011;1283;47.982;7.834;2024-02-14T06:03:47;2.47;;;0.90;;
2546;SDS011;1283;47.982;7.834;2024-02-14T06:06:15;1.85;;;0.90;;
2546;SDS011;1283;47.982;7.834;2024-02-14T06:08:43;6.10;;;1.50;;
2546;SDS011;1283;47.982;7.834;2024-02-14T06:11:10;5.85;;;1.02;;
2546;SDS011;1283;47.982;7.834;2024-02-14T06:13:37;1.23;;;0.90;;
2546;SDS011;1283;47.982;7.834;2024-02-14T06:16:06;2.20;;;0.95;;
2546;SDS011;1283;47.982;7.834;2024-02-14T06:18:35;2.83;;;1.30;;
2546;SDS011;1283;47.982;7.834;2024-02-14T06:21:01;1.83;;;0.93;;
2546;SDS011;1283;47.982;7.834;2024-02-14T06:23:28;3.40;;;1.10;;
2546;SDS011;1283;47.982;7.834;2024-02-14T06:25:57;6.50;;;0.82;;
2546;SDS011;1283;47.982;7.834;2024-02-14T06:28:23;2.33;;;0.85;;
2546;SDS011;1283;47.982;7.834;2024-02-14T06:30:50;1.58;;;0.80;;
2546;SDS011;1283;47.982;7.834;2024-02-14T06:33:18;3.60;;;1.23;;
2546;SDS011;1283;47.982;7.834;2024-02-14T06:35:45;4.10;;;1.00;;
2546;SDS011;1283;47.982;7.834;2024-02-14T06:38:11;1.85;;;0.90;;
2546;SDS011;1283;47.982;7.834;2024-02-14T06:40:38;2.03;;;0.88;;
2546;SDS011;1283;47.982;7.834;2024-02-14T06:43:09;3.92;;;0.80;;
2546;SDS011;1283;47.982;7.834;2024-02-14T06:45:37;4.38;;;0.90;;
2546;SDS011;1283;47.982;7.834;2024-02-14T06:48:05;2.28;;;1.23;;
2546;SDS011;1283;47.982;7.834;2024-02-14T06:50:36;4.55;;;0.90;;
2546;SDS011;1283;47.982;7.834;2024-02-14T06:53:04;1.42;;;0.70;;
2546;SDS011;1283;47.982;7.834;2024-02-14T06:55:30;1.70;;;0.90;;
2546;SDS011;1283;47.982;7.834;2024-02-14T06:57:58;3.33;;;0.90;;
2546;SDS011;1283;47.982;7.834;2024-02-14T07:00:28;3.53;;;1.30;;
2546;SDS011;1283;47.982;7.834;2024-02-14T07:02:55;1.45;;;1.00;;
2546;SDS011;1283;47.982;7.834;2024-02-14T07:05:22;4.65;;;1.13;;
2546;SDS011;1283;47.982;7.834;2024-02-14T07:07:54;2.72;;;1.00;;
2546;SDS011;1283;47.982;7.834;2024-02-14T07:10:21;1.17;;;0.85;;
2546;SDS011;1283;47.982;7.834;2024-02-14T07:12:47;2.85;;;1.00;;
2546;SDS011;1283;47.982;7.834;2024-02-14T07:15:13;2.17;;;0.98;;
2546;SDS011;1283;47.982;7.834;2024-02-14T07:17:41;2.17;;;1.10;;
2546;SDS011;1283;47.982;7.834;2024-02-14T07:20:14;1.17;;;0.65;;
2546;SDS011;1283;47.982;7.834;2024-02-14T07:22:43;5.40;;;1.10;;
2546;SDS011;1283;47.982;7.834;2024-02-14T07:25:11;3.83;;;0.90;;
2546;SDS011;1283;47.982;7.834;2024-02-14T07:27:37;2.45;;;1.10;;
2546;SDS011;1283;47.982;7.834;2024-02-14T07:30:04;3.03;;;1.00;;
2546;SDS011;1283;47.982;7.834;2024-02-14T07:32:31;2.05;;;0.90;;
2546;SDS011;1283;47.982;7.834;2024-02-14T07:34:59;5.10;;;1.30;;
2546;SDS011;1283;47.982;7.834;2024-02-14T07:37:30;3.50;;;1.00;;
2546;SDS011;1283;47.982;7.834;2024-02-14T07:39:58;2.22;;;1.17;;
2546;SDS011;1283;47.982;7.834;2024-02-14T07:42:25;3.25;;;0.95;;
2546;SDS011;1283;47.982;7.834;2024-02-14T07:44:51;2.83;;;0.90;;
2546;SDS011;1283;47.982;7.834;2024-02-14T07:47:19;5.45;;;0.90;;
2546;SDS011;1283;47.982;7.834;2024-02-14T07:49:45;2.70;;;1.10;;
2546;SDS011;1283;47.982;7.834;2024-02-14T07:52:13;2.45;;;1.00;;
2546;SDS011;1283;47.982;7.834;2024-02-14T07:54:41;4.38;;;1.10;;
2546;SDS011;1283;47.982;7.834;2024-02-14T07:57:07;6.18;;;1.02;;
2546;SDS011;1283;47.982;7.834;2024-02-14T07:59:34;3.25;;;1.50;;
2546;SDS011;1283;47.982;7.834;2024-02-14T08:02:04;2.53;;;1.13;;
2546;SDS011;1283;47.982;7.834;2024-02-14T08:04:30;2.45;;;1.13;;
2546;SDS011;1283;47.982;7.834;2024-02-14T08:07:01;2.80;;;1.10;;
2546;SDS011;1283;47.982;7.834;2024-02-14T08:09:29;2.60;;;1.30;;
2546;SDS011;1283;47.982;7.834;2024-02-14T08:11:56;4.00;;;1.25;;
2546;SDS011;1283;47.982;7.834;2024-02-14T08:14:23;2.83;;;0.95;;
2546;SDS011;1283;47.982;7.834;2024-02-14T08:16:50;2.50;;;1.10;;
2546;SDS011;1283;47.982;7.834;2024-02-14T08:19:17;7.85;;;1.10;;
2546;SDS011;1283;47.982;7.834;2024-02-14T08:21:44;2.20;;;1.20;;
2546;SDS011;1283;47.982;7.834;2024-02-14T08:24:12;6.47;;;1.27;;
2546;SDS011;1283;47.982;7.834;2024-02-14T08:26:41;3.15;;;1.17;;
2546;SDS011;1283;47.982;7.834;2024-02-14T08:29:10;6.43;;;1.30;;
2546;SDS011;1283;47.982;7.834;2024-02-14T08:31:40;2.08;;;1.00;;
2546;SDS011;1283;47.982;7.834;2024-02-14T08:34:06;2.38;;;1.15;;
2546;SDS011;1283;47.982;7.834;2024-02-14T08:36:34;4.75;;;1.42;;
2546;SDS011;1283;47.982;7.834;2024-02-14T08:39:08;3.28;;;1.50;;
2546;SDS011;1283;47.982;7.834;2024-02-14T08:41:51;4.60;;;1.30;;
2546;SDS011;1283;47.982;7.834;2024-02-14T08:44:17;4.35;;;1.30;;
2546;SDS011;1283;47.982;7.834;2024-02-14T08:46:45;2.40;;;1.35;;
2546;SDS011;1283;47.982;7.834;2024-02-14T08:49:13;3.78;;;1.33;;
2546;SDS011;1283;47.982;7.834;2024-02-14T08:51:40;2.42;;;1.35;;
2546;SDS011;1283;47.982;7.834;2024-02-14T08:54:09;2.33;;;1.40;;
2546;SDS011;1283;47.982;7.834;2024-02-14T08:56:36;4.28;;;1.38;;
2546;SDS011;1283;47.982;7.834;2024-02-14T08:59:05;3.17;;;1.30;;
2546;SDS011;1283;47.982;7.834;2024-02-14T09:01:33;3.28;;;1.15;;
2546;SDS011;1283;47.982;7.834;2024-02-14T09:04:03;2.35;;;1.10;;
2546;SDS011;1283;47.982;7.834;2024-02-14T09:06:32;3.38;;;1.77;;
2546;SDS011;1283;47.982;7.834;2024-02-14T09:08:59;2.33;;;1.13;;
2546;SDS011;1283;47.982;7.834;2024-02-14T09:11:26;2.22;;;1.15;;
2546;SDS011;1283;47.982;7.834;2024-02-14T09:13:57;5.38;;;1.52;;
2546;SDS011;1283;47.982;7.834;2024-02-14T09:16:32;3.00;;;1.50;;
2546;SDS011;1283;47.982;7.834;2024-02-14T09:19:02;9.23;;;1.25;;
2546;SDS011;1283;47.982;7.834;2024-02-14T09:21:36;3.47;;;1.33;;
2546;SDS011;1283;47.982;7.834;2024-02-14T09:24:03;4.30;;;1.60;;
2546;SDS011;1283;47.982;7.834;2024-02-14T09:26:31;10.70;;;1.25;;
2546;SDS011;1283;47.982;7.834;2024-02-14T09:29:04;7.35;;;1.73;;
2546;SDS011;1283;47.982;7.834;2024-02-14T09:31:47;2.75;;;1.48;;
2546;SDS011;1283;47.982;7.834;2024-02-14T09:34:19;4.95;;;1.63;;
2546;SDS011;1283;47.982;7.834;2024-02-14T09:36:47;2.28;;;1.20;;
2546;SDS011;1283;47.982;7.834;2024-02-14T09:39:14;2.63;;;1.48;;
2546;SDS011;1283;47.982;7.834;2024-02-14T09:41:46;5.43;;;1.42;;
2546;SDS011;1283;47.982;7.834;2024-02-14T09:44:20;4.53;;;1.42;;
2546;SDS011;1283;47.982;7.834;2024-02-14T09:46:54;5.30;;;1.75;;
2546;SDS011;1283;47.982;7.834;2024-02-14T09:49:21;3.75;;;1.52;;
2546;SDS011;1283;47.982;7.834;2024-02-14T09:51:52;3.67;;;1.40;;
2546;SDS011;1283;47.982;7.834;2024-02-14T09:54:21;3.10;;;1.20;;
2546;SDS011;1283;47.982;7.834;2024-02-14T09:56:47;3.10;;;1.15;;
2546;SDS011;1283;47.982;7.834;2024-02-14T09:59:18;2.25;;;1.00;;
2546;SDS011;1283;47.982;7.834;2024-02-14T10:01:45;2.90;;;1.20;;
2546;SDS011;1283;47.982;7.834;2024-02-14T10:04:23;1.92;;;1.10;;
2546;SDS011;1283;47.982;7.834;2024-02-14T10:06:50;1.35;;;0.88;;
2546;SDS011;1283;47.982;7.834;2024-02-14T10:09:19;1.00;;;0.70;;
2546;SDS011;1283;47.982;7.834;2024-02-14T10:11:46;6.03;;;1.05;;
2546;SDS011;1283;47.982;7.834;2024-02-14T10:14:13;1.58;;;0.80;;
2546;SDS011;1283;47.982;7.834;2024-02-14T10:16:50;2.03;;;0.80;;
2546;SDS011;1283;47.982;7.834;2024-02-14T10:19:21;3.83;;;0.90;;
2546;SDS011;1283;47.982;7.834;2024-02-14T10:21:55;2.08;;;0.82;;
2546;SDS011;1283;47.982;7.834;2024-02-14T10:24:24;1.67;;;0.80;;
2546;SDS011;1283;47.982;7.834;2024-02-14T10:26:52;5.20;;;0.90;;
2546;SDS011;1283;47.982;7.834;2024-02-14T10:29:23;3.78;;;1.15;;
2546;SDS011;1283;47.982;7.834;2024-02-14T10:31:53;6.93;;;0.80;;
2546;SDS011;1283;47.982;7.834;2024-02-14T10:34:25;2.15;;;0.75;;
2546;SDS011;1283;47.982;7.834;2024-02-14T10:36:56;1.38;;;0.88;;
2546;SDS011;1283;47.982;7.834;2024-02-14T10:39:25;2.25;;;0.80;;
2546;SDS011;1283;47.982;7.834;2024-02-14T10:41:52;3.08;;;0.95;;
2546;SDS011;1283;47.982;7.834;2024-02-14T10:44:19;1.38;;;0.70;;
2546;SDS011;1283;47.982;7.834;2024-02-14T10:46:46;1.52;;;0.88;;
2546;SDS011;1283;47.982;7.834;2024-02-14T10:49:15;4.75;;;0.70;;
2546;SDS011;1283;47.982;7.834;2024-02-14T10:51:51;1.67;;;0.73;;
2546;SDS011;1283;47.982;7.834;2024-02-14T10:54:22;3.15;;;0.70;;
2546;SDS011;1283;47.982;7.834;2024-02-14T10:56:51;4.35;;;0.90;;
2546;SDS011;1283;47.982;7.834;2024-02-14T10:59:22;3.55;;;0.70;;
2546;SDS011;1283;47.982;7.834;2024-02-14T11:01:49;3.17;;;0.77;;
2546;SDS011;1283;47.982;7.834;2024-02-14T11:04:16;2.38;;;1.00;;
2546;SDS011;1283;47.982;7.834;2024-02-14T11:06:45;2.15;;;0.90;;
2546;SDS011;1283;47.982;7.834;2024-02-14T11:09:16;2.22;;;0.75;;
2546;SDS011;1283;47.982;7.834;2024-02-14T11:11:48;3.08;;;0.70;;
2546;SDS011;1283;47.982;7.834;2024-02-14T11:14:14;1.15;;;0.63;;
2546;SDS011;1283;47.982;7.834;2024-02-14T11:16:44;1.80;;;0.75;;
2546;SDS011;1283;47.982;7.834;2024-02-14T11:19:12;3.47;;;0.85;;
2546;SDS011;1283;47.982;7.834;2024-02-14T11:21:45;2.45;;;0.77;;
2546;SDS011;1283;47.982;7.834;2024-02-14T11:27:01;1.95;;;0.65;;
2546;SDS011;1283;47.982;7.834;2024-02-14T11:29:29;4.13;;;0.70;;
2546;SDS011;1283;47.982;7.834;2024-02-14T11:32:00;1.00;;;0.70;;
2546;SDS011;1283;47.982;7.834;2024-02-14T11:34:31;1.58;;;0.60;;
2546;SDS011;1283;47.982;7.834;2024-02-14T11:37:02;2.65;;;0.65;;
2546;SDS011;1283;47.982;7.834;2024-02-14T11:39:35;1.08;;;0.77;;
2546;SDS011;1283;47.982;7.834;2024-02-14T11:42:06;1.30;;;1.02;;
2546;SDS011;1283;47.982;7.834;2024-02-14T11:44:47;2.30;;;0.80;;
2546;SDS011;1283;47.982;7.834;2024-02-14T11:47:17;2.25;;;1.23;;
2546;SDS011;1283;47.982;7.834;2024-02-14T11:49:44;4.07;;;1.30;;
2546;SDS011;1283;47.982;7.834;2024-02-14T11:52:12;1.15;;;0.80;;
2546;SDS011;1283;47.982;7.834;2024-02-14T11:54:40;2.53;;;1.20;;
2546;SDS011;1283;47.982;7.834;2024-02-14T11:57:16;2.10;;;1.00;;
2546;SDS011;1283;47.982;7.834;2024-02-14T11:59:44;5.63;;;1.23;;
2546;SDS011;1283;47.982;7.834;2024-02-14T12:02:18;2.63;;;1.00;;
2546;SDS011;1283;47.982;7.834;2024-02-14T12:04:45;2.25;;;1.00;;
2546;SDS011;1283;47.982;7.834;2024-02-14T12:07:12;3.13;;;1.00;;
2546;SDS011;1283;47.982;7.834;2024-02-14T12:09:40;3.35;;;0.93;;
2546;SDS011;1283;47.982;7.834;2024-02-14T12:12:08;5.20;;;1.02;;
2546;SDS011;1283;47.982;7.834;2024-02-14T12:14:34;1.52;;;0.90;;
2546;SDS011;1283;47.982;7.834;2024-02-14T12:17:02;6.07;;;1.10;;
2546;SDS011;1283;47.982;7.834;2024-02-14T12:19:31;2.53;;;0.95;;
2546;SDS011;1283;47.982;7.834;2024-02-14T12:21:59;2.28;;;1.25;;
2546;SDS011;1283;47.982;7.834;2024-02-14T12:24:27;2.78;;;1.13;;
2546;SDS011;1283;47.982;7.834;2024-02-14T12:26:59;3.83;;;1.00;;
2546;SDS011;1283;47.982;7.834;2024-02-14T12:29:26;3.67;;;0.98;;
2546;SDS011;1283;47.982;7.834;2024-02-14T12:32:02;3.15;;;1.13;;
2546;SDS011;1283;47.982;7.834;2024-02-14T12:34:37;1.98;;;0.98;;
2546;SDS011;1283;47.982;7.834;2024-02-14T12:37:06;2.15;;;0.95;;
2546;SDS011;1283;47.982;7.834;2024-02-14T12:39:36;3.30;;;0.90;;
2546;SDS011;1283;47.982;7.834;2024-02-14T12:42:06;1.65;;;0.80;;
2546;SDS011;1283;47.982;7.834;2024-02-14T12:44:33;1.42;;;0.75;;
2546;SDS011;1283;47.982;7.834;2024-02-14T12:47:01;1.48;;;0.90;;
2546;SDS011;1283;47.982;7.834;2024-02-14T12:49:29;1.60;;;0.80;;
2546;SDS011;1283;47.982;7.834;2024-02-14T12:51:56;1.42;;;0.80;;
2546;SDS011;1283;47.982;7.834;2024-02-14T12:54:23;1.67;;;1.08;;
2546;SDS011;1283;47.982;7.834;2024-02-14T12:56:51;1.95;;;1.10;;
2546;SDS011;1283;47.982;7.834;2024-02-14T12:59:26;3.13;;;0.82;;
2546;SDS011;1283;47.982;7.834;2024-02-14T13:01:54;1.45;;;0.82;;
2546;SDS011;1283;47.982;7.834;2024-02-14T13:04:21;3.85;;;1.10;;
2546;SDS011;1283;47.982;7.834;2024-02-14T13:06:54;2.60;;;1.17;;
2546;SDS011;1283;47.982;7.834;2024-02-14T13:09:24;2.13;;;0.77;;
2546;SDS011;1283;47.982;7.834;2024-02-14T13:11:53;1.00;;;0.60;;
2546;SDS011;1283;47.982;7.834;2024-02-14T13:17:03;2.50;;;0.80;;
2546;SDS011;1283;47.982;7.834;2024-02-14T13:19:33;2.53;;;1.08;;
2546;SDS011;1283;47.982;7.834;2024-02-14T13:22:00;2.38;;;0.80;;
2546;SDS011;1283;47.982;7.834;2024-02-14T13:24:30;3.72;;;0.88;;
2546;SDS011;1283;47.982;7.834;2024-02-14T13:26:58;2.40;;;0.80;;
2546;SDS011;1283;47.982;7.834;2024-02-14T13:29:25;1.83;;;0.88;;
2546;SDS011;1283;47.982;7.834;2024-02-14T13:31:56;1.40;;;0.80;;
2546;SDS011;1283;47.982;7.834;2024-02-14T13:34:23;2.10;;;1.02;;
2546;SDS011;1283;47.982;7.834;2024-02-14T13:36:50;1.67;;;1.20;;
2546;SDS011;1283;47.982;7.834;2024-02-14T13:39:19;2.30;;;1.02;;
2546;SDS011;1283;47.982;7.834;2024-02-14T13:41:47;2.83;;;0.90;;
2546;SDS011;1283;47.982;7.834;2024-02-14T13:44:15;2.03;;;1.00;;
2546;SDS011;1283;47.982;7.834;2024-02-14T13:46:43;3.97;;;1.30;;
2546;SDS011;1283;47.982;7.834;2024-02-14T13:52:11;1.70;;;1.00;;
2546;SDS011;1283;47.982;7.834;2024-02-14T13:54:40;4.75;;;0.95;;
2546;SDS011;1283;47.982;7.834;2024-02-14T13:57:07;2.50;;;1.27;;
2546;SDS011;1283;47.982;7.834;2024-02-14T13:59:33;6.07;;;1.23;;
2546;SDS011;1283;47.982;7.834;2024-02-14T14:02:07;2.10;;;0.77;;
2546;SDS011;1283;47.982;7.834;2024-02-14T14:04:37;1.10;;;0.80;;
2546;SDS011;1283;47.982;7.834;2024-02-14T14:07:03;1.00;;;0.70;;
2546;SDS011;1283;47.982;7.834;2024-02-14T14:09:30;2.90;;;0.90;;
2546;SDS011;1283;47.982;7.834;2024-02-14T14:12:00;1.17;;;0.88;;
2546;SDS011;1283;47.982;7.834;2024-02-14T14:14:31;2.58;;;0.70;;
2546;SDS011;1283;47.982;7.834;2024-02-14T14:16:59;2.05;;;1.00;;
2546;SDS011;1283;47.982;7.834;2024-02-14T14:19:26;1.13;;;0.65;;
2546;SDS011;1283;47.982;7.834;2024-02-14T14:21:54;2.45;;;0.90;;
2546;SDS011;1283;47.982;7.834;2024-02-14T14:24:21;3.58;;;0.77;;
2546;SDS011;1283;47.982;7.834;2024-02-14T14:26:51;5.68;;;0.73;;
2546;SDS011;1283;47.982;7.834;2024-02-14T14:29:18;1.02;;;0.60;;
2546;SDS011;1283;47.982;7.834;2024-02-14T14:31:49;1.48;;;0.80;;
2546;SDS011;1283;47.982;7.834;2024-02-14T14:34:17;1.63;;;0.90;;
2546;SDS011;1283;47.982;7.834;2024-02-14T14:36:48;1.75;;;0.82;;
2546;SDS011;1283;47.982;7.834;2024-02-14T14:39:16;4.03;;;0.85;;
2546;SDS011;1283;47.982;7.834;2024-02-14T14:41:44;1.30;;;0.70;;
2546;SDS011;1283;47.982;7.834;2024-02-14T14:44:11;1.20;;;0.80;;
2546;SDS011;1283;47.982;7.834;2024-02-14T14:46:38;3.17;;;0.93;;
2546;SDS011;1283;47.982;7.834;2024-02-14T14:49:07;2.67;;;0.70;;
2546;SDS011;1283;47.982;7.834;2024-02-14T14:51:34;3.20;;;0.90;;
2546;SDS011;1283;47.982;7.834;2024-02-14T14:54:03;0.90;;;0.70;;
2546;SDS011;1283;47.982;7.834;2024-02-14T14:56:32;8.52;;;1.85;;
2546;SDS011;1283;47.982;7.834;2024-02-14T14:59:08;4.38;;;2.22;;
2546;SDS011;1283;47.982;7.834;2024-02-14T15:01:35;5.43;;;1.65;;
2546;SDS011;1283;47.982;7.834;2024-02-14T15:04:01;4.45;;;2.33;;
2546;SDS011;1283;47.982;7.834;2024-02-14T15:06:29;2.83;;;1.25;;
2546;SDS011;1283;47.982;7.834;2024-02-14T15:08:56;8.57;;;1.20;;
2546;SDS011;1283;47.982;7.834;2024-02-14T15:11:24;1.90;;;0.90;;
2546;SDS011;1283;47.982;7.834;2024-02-14T15:13:54;4.20;;;1.40;;
2546;SDS011;1283;47.982;7.834;2024-02-14T15:16:21;3.90;;;1.25;;
2546;SDS011;1283;47.982;7.834;2024-02-14T15:18:48;1.60;;;0.93;;
2546;SDS011;1283;47.982;7.834;2024-02-14T15:21:15;1.40;;;1.05;;
2546;SDS011;1283;47.982;7.834;2024-02-14T15:23:49;1.65;;;0.80;;
2546;SDS011;1283;47.982;7.834;2024-02-14T15:26:16;1.27;;;0.70;;
2546;SDS011;1283;47.982;7.834;2024-02-14T15:28:44;2.95;;;0.70;;
2546;SDS011;1283;47.982;7.834;2024-02-14T15:31:22;1.73;;;0.80;;